sensor_id;sensor_type;location;lat;lon;timestamp;temperature;humidity
27544;DHT22;17996;51.056;3.656;2023-08-21T00:01:45;21.00;99.90
27544;DHT22;17996;51.056;3.656;2023-08-21T00:04:11;21.00;99.90
27544;DHT22;17996;51.056;3.656;2023-08-21T00:06:37;21.00;99.90
27544;DHT22;17996;51.056;3.656;2023-08-21T00:09:02;21.00;99.90
27544;DHT22;17996;51.056;3.656;2023-08-21T00:11:28;21.00;99.90
27544;DHT22;17996;51.056;3.656;2023-08-21T00:13:54;21.00;99.90
27544;DHT22;17996;51.056;3.656;2023-08-21T00:16:19;21.00;99.90
27544;DHT22;17996;51.056;3.656;2023-08-21T00:18:45;20.90;99.90
27544;DHT22;17996;51.056;3.656;2023-08-21T00:21:11;20.90;99.90
27544;DHT22;17996;51.056;3.656;2023-08-21T00:23:37;20.90;99.90
27544;DHT22;17996;51.056;3.656;2023-08-21T00:26:02;20.90;99.90
27544;DHT22;17996;51.056;3.656;2023-08-21T00:28:28;20.90;99.90
27544;DHT22;17996;51.056;3.656;2023-08-21T00:31:07;20.90;99.90
27544;DHT22;17996;51.056;3.656;2023-08-21T00:33:33;20.80;99.90
27544;DHT22;17996;51.056;3.656;2023-08-21T00:35:59;20.80;99.90
27544;DHT22;17996;51.056;3.656;2023-08-21T00:38:25;20.80;99.90
27544;DHT22;17996;51.056;3.656;2023-08-21T00:40:52;20.70;99.90
27544;DHT22;17996;51.056;3.656;2023-08-21T00:43:17;20.70;99.90
27544;DHT22;17996;51.056;3.656;2023-08-21T00:45:44;20.60;99.90
27544;DHT22;17996;51.056;3.656;2023-08-21T00:48:12;20.60;99.90
27544;DHT22;17996;51.056;3.656;2023-08-21T00:50:39;20.50;99.90
27544;DHT22;17996;51.056;3.656;2023-08-21T00:53:05;20.50;99.90
27544;DHT22;17996;51.056;3.656;2023-08-21T00:55:32;20.60;99.90
27544;DHT22;17996;51.056;3.656;2023-08-21T00:57:58;20.60;99.90
27544;DHT22;17996;51.056;3.656;2023-08-21T01:00:25;20.60;99.90
27544;DHT22;17996;51.056;3.656;2023-08-21T01:02:52;20.60;99.90
27544;DHT22;17996;51.056;3.656;2023-08-21T01:05:18;20.70;99.90
27544;DHT22;17996;51.056;3.656;2023-08-21T01:14:09;20.70;99.90
27544;DHT22;17996;51.056;3.656;2023-08-21T01:16:40;20.70;99.90
27544;DHT22;17996;51.056;3.656;2023-08-21T01:19:14;20.70;99.90
27544;DHT22;17996;51.056;3.656;2023-08-21T01:21:44;20.70;99.90
27544;DHT22;17996;51.056;3.656;2023-08-21T01:24:10;20.70;99.90
27544;DHT22;17996;51.056;3.656;2023-08-21T01:26:35;20.80;99.90
27544;DHT22;17996;51.056;3.656;2023-08-21T01:29:01;20.80;99.90
27544;DHT22;17996;51.056;3.656;2023-08-21T01:31:31;20.80;99.90
27544;DHT22;17996;51.056;3.656;2023-08-21T01:34:04;20.80;99.90
27544;DHT22;17996;51.056;3.656;2023-08-21T01:36:30;20.80;99.90
27544;DHT22;17996;51.056;3.656;2023-08-21T01:38:57;20.80;99.90
27544;DHT22;17996;51.056;3.656;2023-08-21T01:41:24;20.80;99.90
27544;DHT22;17996;51.056;3.656;2023-08-21T01:43:50;20.80;99.90
27544;DHT22;17996;51.056;3.656;2023-08-21T01:46:16;20.70;99.90
27544;DHT22;17996;51.056;3.656;2023-08-21T01:48:41;20.80;99.90
27544;DHT22;17996;51.056;3.656;2023-08-21T01:51:08;20.80;99.90
27544;DHT22;17996;51.056;3.656;2023-08-21T01:53:33;20.80;99.90
27544;DHT22;17996;51.056;3.656;2023-08-21T01:55:59;20.70;99.90
27544;DHT22;17996;51.056;3.656;2023-08-21T01:58:25;20.70;99.90
27544;DHT22;17996;51.056;3.656;2023-08-21T02:00:50;20.60;99.90
27544;DHT22;17996;51.056;3.656;2023-08-21T02:03:16;20.60;99.90
27544;DHT22;17996;51.056;3.656;2023-08-21T02:05:41;20.60;99.90
27544;DHT22;17996;51.056;3.656;2023-08-21T02:08:11;20.60;99.90
27544;DHT22;17996;51.056;3.656;2023-08-21T02:10:37;20.50;99.90
27544;DHT22;17996;51.056;3.656;2023-08-21T02:13:03;20.50;99.90
27544;DHT22;17996;51.056;3.656;2023-08-21T02:15:29;20.50;99.90
27544;DHT22;17996;51.056;3.656;2023-08-21T02:17:54;20.40;99.90
27544;DHT22;17996;51.056;3.656;2023-08-21T02:20:20;20.40;99.90
27544;DHT22;17996;51.056;3.656;2023-08-21T02:22:46;20.40;99.90
27544;DHT22;17996;51.056;3.656;2023-08-21T02:25:12;20.30;99.90
27544;DHT22;17996;51.056;3.656;2023-08-21T02:27:37;20.40;99.90
27544;DHT22;17996;51.056;3.656;2023-08-21T02:30:03;20.30;99.90
27544;DHT22;17996;51.056;3.656;2023-08-21T02:32:29;20.30;99.90
27544;DHT22;17996;51.056;3.656;2023-08-21T02:34:55;20.30;99.90
27544;DHT22;17996;51.056;3.656;2023-08-21T02:37:21;20.30;99.90
27544;DHT22;17996;51.056;3.656;2023-08-21T02:39:46;20.30;99.90
27544;DHT22;17996;51.056;3.656;2023-08-21T02:42:12;20.20;99.90
27544;DHT22;17996;51.056;3.656;2023-08-21T02:44:38;20.20;99.90
27544;DHT22;17996;51.056;3.656;2023-08-21T02:47:03;20.20;99.90
27544;DHT22;17996;51.056;3.656;2023-08-21T02:49:29;20.20;99.90
27544;DHT22;17996;51.056;3.656;2023-08-21T02:51:55;20.10;99.90
27544;DHT22;17996;51.056;3.656;2023-08-21T02:54:20;20.10;99.90
27544;DHT22;17996;51.056;3.656;2023-08-21T02:56:46;20.00;99.90
27544;DHT22;17996;51.056;3.656;2023-08-21T02:59:13;20.00;99.90
27544;DHT22;17996;51.056;3.656;2023-08-21T03:01:39;20.00;99.90
27544;DHT22;17996;51.056;3.656;2023-08-21T03:04:04;20.00;99.90
27544;DHT22;17996;51.056;3.656;2023-08-21T03:06:30;20.00;99.90
27544;DHT22;17996;51.056;3.656;2023-08-21T03:08:56;20.00;99.90
27544;DHT22;17996;51.056;3.656;2023-08-21T03:11:21;20.00;99.90
27544;DHT22;17996;51.056;3.656;2023-08-21T03:13:47;19.90;99.90
27544;DHT22;17996;51.056;3.656;2023-08-21T03:16:13;20.00;99.90
27544;DHT22;17996;51.056;3.656;2023-08-21T03:18:57;19.90;99.90
27544;DHT22;17996;51.056;3.656;2023-08-21T03:21:24;19.90;99.90
27544;DHT22;17996;51.056;3.656;2023-08-21T03:23:51;19.90;99.90
27544;DHT22;17996;51.056;3.656;2023-08-21T03:26:17;19.90;99.90
27544;DHT22;17996;51.056;3.656;2023-08-21T03:28:43;19.90;99.90
27544;DHT22;17996;51.056;3.656;2023-08-21T03:31:08;19.90;99.90
27544;DHT22;17996;51.056;3.656;2023-08-21T03:33:34;19.90;99.90
27544;DHT22;17996;51.056;3.656;2023-08-21T03:36:00;19.90;99.90
27544;DHT22;17996;51.056;3.656;2023-08-21T03:38:25;19.90;99.90
27544;DHT22;17996;51.056;3.656;2023-08-21T03:40:51;19.90;99.90
27544;DHT22;17996;51.056;3.656;2023-08-21T03:43:17;19.90;99.90
27544;DHT22;17996;51.056;3.656;2023-08-21T03:45:42;19.90;99.90
27544;DHT22;17996;51.056;3.656;2023-08-21T03:48:08;19.90;99.90
27544;DHT22;17996;51.056;3.656;2023-08-21T03:50:34;19.90;99.90
27544;DHT22;17996;51.056;3.656;2023-08-21T03:52:59;19.90;99.90
27544;DHT22;17996;51.056;3.656;2023-08-21T03:55:25;19.90;99.90
27544;DHT22;17996;51.056;3.656;2023-08-21T03:57:51;19.90;99.90
27544;DHT22;17996;51.056;3.656;2023-08-21T04:00:16;19.90;99.90
27544;DHT22;17996;51.056;3.656;2023-08-21T04:02:42;19.90;99.90
27544;DHT22;17996;51.056;3.656;2023-08-21T04:05:08;19.80;99.90
27544;DHT22;17996;51.056;3.656;2023-08-21T04:07:36;19.80;99.90
27544;DHT22;17996;51.056;3.656;2023-08-21T04:10:01;19.70;99.90
27544;DHT22;17996;51.056;3.656;2023-08-21T04:12:27;19.70;99.90
27544;DHT22;17996;51.056;3.656;2023-08-21T04:14:53;19.70;99.90
27544;DHT22;17996;51.056;3.656;2023-08-21T04:17:22;19.60;99.90
27544;DHT22;17996;51.056;3.656;2023-08-21T04:19:48;19.60;99.90
27544;DHT22;17996;51.056;3.656;2023-08-21T04:22:14;19.60;99.90
27544;DHT22;17996;51.056;3.656;2023-08-21T04:24:41;19.50;99.90
27544;DHT22;17996;51.056;3.656;2023-08-21T04:27:06;19.40;99.90
27544;DHT22;17996;51.056;3.656;2023-08-21T04:29:32;19.40;99.90
27544;DHT22;17996;51.056;3.656;2023-08-21T04:31:58;19.40;99.90
27544;DHT22;17996;51.056;3.656;2023-08-21T04:34:23;19.30;99.90
27544;DHT22;17996;51.056;3.656;2023-08-21T04:36:49;19.30;99.90
27544;DHT22;17996;51.056;3.656;2023-08-21T04:39:15;19.30;99.90
27544;DHT22;17996;51.056;3.656;2023-08-21T04:41:41;19.30;99.90
27544;DHT22;17996;51.056;3.656;2023-08-21T04:44:07;19.30;99.90
27544;DHT22;17996;51.056;3.656;2023-08-21T04:46:32;19.20;99.90
27544;DHT22;17996;51.056;3.656;2023-08-21T04:48:58;19.20;99.90
27544;DHT22;17996;51.056;3.656;2023-08-21T04:51:24;19.20;99.90
27544;DHT22;17996;51.056;3.656;2023-08-21T04:53:50;19.20;99.90
27544;DHT22;17996;51.056;3.656;2023-08-21T04:56:15;19.20;99.90
27544;DHT22;17996;51.056;3.656;2023-08-21T04:58:41;19.20;99.90
27544;DHT22;17996;51.056;3.656;2023-08-21T05:01:07;19.20;99.90
27544;DHT22;17996;51.056;3.656;2023-08-21T05:03:32;19.20;99.90
27544;DHT22;17996;51.056;3.656;2023-08-21T05:05:58;19.20;99.90
27544;DHT22;17996;51.056;3.656;2023-08-21T05:08:25;19.20;99.90
27544;DHT22;17996;51.056;3.656;2023-08-21T05:10:58;19.10;99.90
27544;DHT22;17996;51.056;3.656;2023-08-21T05:13:24;19.20;99.90
27544;DHT22;17996;51.056;3.656;2023-08-21T05:15:55;19.10;99.90
27544;DHT22;17996;51.056;3.656;2023-08-21T05:18:21;19.10;99.90
27544;DHT22;17996;51.056;3.656;2023-08-21T05:20:48;19.10;99.90
27544;DHT22;17996;51.056;3.656;2023-08-21T05:23:15;19.10;99.90
27544;DHT22;17996;51.056;3.656;2023-08-21T05:25:41;19.20;99.90
27544;DHT22;17996;51.056;3.656;2023-08-21T05:28:07;19.20;99.90
27544;DHT22;17996;51.056;3.656;2023-08-21T05:30:33;19.20;99.90
27544;DHT22;17996;51.056;3.656;2023-08-21T05:32:59;19.20;99.90
27544;DHT22;17996;51.056;3.656;2023-08-21T05:35:24;19.20;99.90
27544;DHT22;17996;51.056;3.656;2023-08-21T05:37:50;19.10;99.90
27544;DHT22;17996;51.056;3.656;2023-08-21T05:40:16;19.10;99.90
27544;DHT22;17996;51.056;3.656;2023-08-21T05:42:41;19.10;99.90
27544;DHT22;17996;51.056;3.656;2023-08-21T05:45:07;19.10;99.90
27544;DHT22;17996;51.056;3.656;2023-08-21T05:47:33;19.10;99.90
27544;DHT22;17996;51.056;3.656;2023-08-21T05:49:59;19.10;99.90
27544;DHT22;17996;51.056;3.656;2023-08-21T05:52:24;19.10;99.90
27544;DHT22;17996;51.056;3.656;2023-08-21T05:54:50;19.10;99.90
27544;DHT22;17996;51.056;3.656;2023-08-21T05:57:15;19.20;99.90
27544;DHT22;17996;51.056;3.656;2023-08-21T05:59:45;19.20;99.90
27544;DHT22;17996;51.056;3.656;2023-08-21T06:02:12;19.20;99.90
27544;DHT22;17996;51.056;3.656;2023-08-21T06:04:42;19.20;99.90
27544;DHT22;17996;51.056;3.656;2023-08-21T06:07:09;19.10;99.90
27544;DHT22;17996;51.056;3.656;2023-08-21T06:09:35;19.10;99.90
27544;DHT22;17996;51.056;3.656;2023-08-21T06:12:02;19.20;99.90
27544;DHT22;17996;51.056;3.656;2023-08-21T06:14:28;19.20;99.90
27544;DHT22;17996;51.056;3.656;2023-08-21T06:17:02;19.20;99.90
27544;DHT22;17996;51.056;3.656;2023-08-21T06:19:28;19.30;99.90
27544;DHT22;17996;51.056;3.656;2023-08-21T06:21:55;19.30;99.90
27544;DHT22;17996;51.056;3.656;2023-08-21T06:24:21;19.30;99.90
27544;DHT22;17996;51.056;3.656;2023-08-21T06:26:47;19.30;99.90
27544;DHT22;17996;51.056;3.656;2023-08-21T06:29:12;19.30;99.90
27544;DHT22;17996;51.056;3.656;2023-08-21T06:31:38;19.30;99.90
27544;DHT22;17996;51.056;3.656;2023-08-21T06:34:04;19.30;99.90
27544;DHT22;17996;51.056;3.656;2023-08-21T06:36:29;19.40;99.90
27544;DHT22;17996;51.056;3.656;2023-08-21T06:38:55;19.40;99.90
27544;DHT22;17996;51.056;3.656;2023-08-21T06:41:21;19.40;99.90
27544;DHT22;17996;51.056;3.656;2023-08-21T06:43:47;19.40;99.90
27544;DHT22;17996;51.056;3.656;2023-08-21T06:46:13;19.40;99.90
27544;DHT22;17996;51.056;3.656;2023-08-21T06:48:39;19.50;99.90
27544;DHT22;17996;51.056;3.656;2023-08-21T06:51:06;19.50;99.90
27544;DHT22;17996;51.056;3.656;2023-08-21T06:53:32;19.50;99.90
27544;DHT22;17996;51.056;3.656;2023-08-21T06:55:58;19.50;99.90
27544;DHT22;17996;51.056;3.656;2023-08-21T06:58:23;19.50;99.90
27544;DHT22;17996;51.056;3.656;2023-08-21T07:00:49;19.60;99.90
27544;DHT22;17996;51.056;3.656;2023-08-21T07:03:15;19.60;99.90
27544;DHT22;17996;51.056;3.656;2023-08-21T07:05:41;19.60;99.90
27544;DHT22;17996;51.056;3.656;2023-08-21T07:08:07;19.60;99.90
27544;DHT22;17996;51.056;3.656;2023-08-21T07:10:36;19.70;99.90
27544;DHT22;17996;51.056;3.656;2023-08-21T07:13:02;19.70;99.90
27544;DHT22;17996;51.056;3.656;2023-08-21T07:15:29;19.70;99.90
27544;DHT22;17996;51.056;3.656;2023-08-21T07:17:55;19.80;99.90
27544;DHT22;17996;51.056;3.656;2023-08-21T07:20:21;19.80;99.90
27544;DHT22;17996;51.056;3.656;2023-08-21T07:22:47;19.80;99.90
27544;DHT22;17996;51.056;3.656;2023-08-21T07:25:13;19.90;99.90
27544;DHT22;17996;51.056;3.656;2023-08-21T07:27:39;20.00;99.90
27544;DHT22;17996;51.056;3.656;2023-08-21T07:30:06;20.00;99.90
27544;DHT22;17996;51.056;3.656;2023-08-21T07:32:32;20.10;99.90
27544;DHT22;17996;51.056;3.656;2023-08-21T07:34:58;20.20;99.90
27544;DHT22;17996;51.056;3.656;2023-08-21T07:37:23;20.20;99.90
27544;DHT22;17996;51.056;3.656;2023-08-21T07:39:49;20.10;99.90
27544;DHT22;17996;51.056;3.656;2023-08-21T07:42:15;20.10;99.90
27544;DHT22;17996;51.056;3.656;2023-08-21T07:44:40;20.10;99.90
27544;DHT22;17996;51.056;3.656;2023-08-21T07:47:06;20.20;99.90
27544;DHT22;17996;51.056;3.656;2023-08-21T07:49:35;20.30;99.90
27544;DHT22;17996;51.056;3.656;2023-08-21T07:52:02;20.30;99.90
27544;DHT22;17996;51.056;3.656;2023-08-21T07:54:28;20.30;99.90
27544;DHT22;17996;51.056;3.656;2023-08-21T07:56:53;20.30;99.90
27544;DHT22;17996;51.056;3.656;2023-08-21T07:59:19;20.30;99.90
27544;DHT22;17996;51.056;3.656;2023-08-21T08:01:45;20.30;99.90
27544;DHT22;17996;51.056;3.656;2023-08-21T08:04:11;20.30;99.90
27544;DHT22;17996;51.056;3.656;2023-08-21T08:06:37;20.30;99.90
27544;DHT22;17996;51.056;3.656;2023-08-21T08:09:02;20.40;99.90
27544;DHT22;17996;51.056;3.656;2023-08-21T08:11:31;20.40;99.90
27544;DHT22;17996;51.056;3.656;2023-08-21T08:13:57;20.40;99.90
27544;DHT22;17996;51.056;3.656;2023-08-21T08:16:22;20.40;99.90
27544;DHT22;17996;51.056;3.656;2023-08-21T08:18:48;20.40;99.90
27544;DHT22;17996;51.056;3.656;2023-08-21T08:21:14;20.40;99.90
27544;DHT22;17996;51.056;3.656;2023-08-21T08:23:39;20.40;99.90
27544;DHT22;17996;51.056;3.656;2023-08-21T08:26:05;20.40;99.90
27544;DHT22;17996;51.056;3.656;2023-08-21T08:28:31;20.50;99.90
27544;DHT22;17996;51.056;3.656;2023-08-21T08:30:56;20.50;99.90
27544;DHT22;17996;51.056;3.656;2023-08-21T08:33:23;20.50;99.90
27544;DHT22;17996;51.056;3.656;2023-08-21T08:35:49;20.60;99.90
27544;DHT22;17996;51.056;3.656;2023-08-21T08:38:14;20.60;99.90
27544;DHT22;17996;51.056;3.656;2023-08-21T08:40:46;20.60;99.90
27544;DHT22;17996;51.056;3.656;2023-08-21T08:43:12;20.60;99.90
27544;DHT22;17996;51.056;3.656;2023-08-21T08:45:40;20.60;99.90
27544;DHT22;17996;51.056;3.656;2023-08-21T08:48:07;20.50;99.90
27544;DHT22;17996;51.056;3.656;2023-08-21T08:50:33;20.50;99.90
27544;DHT22;17996;51.056;3.656;2023-08-21T08:53:00;20.60;99.90
27544;DHT22;17996;51.056;3.656;2023-08-21T08:55:26;20.50;99.90
27544;DHT22;17996;51.056;3.656;2023-08-21T08:57:53;20.60;99.90
27544;DHT22;17996;51.056;3.656;2023-08-21T09:00:20;20.60;99.90
27544;DHT22;17996;51.056;3.656;2023-08-21T09:02:46;20.60;99.90
27544;DHT22;17996;51.056;3.656;2023-08-21T09:05:12;20.60;99.90
27544;DHT22;17996;51.056;3.656;2023-08-21T09:07:38;20.70;99.90
27544;DHT22;17996;51.056;3.656;2023-08-21T09:10:04;20.70;99.90
27544;DHT22;17996;51.056;3.656;2023-08-21T09:12:38;20.80;99.90
27544;DHT22;17996;51.056;3.656;2023-08-21T09:15:07;20.80;99.90
27544;DHT22;17996;51.056;3.656;2023-08-21T09:17:33;20.90;99.90
27544;DHT22;17996;51.056;3.656;2023-08-21T09:20:06;20.90;99.90
27544;DHT22;17996;51.056;3.656;2023-08-21T09:22:33;20.90;99.90
27544;DHT22;17996;51.056;3.656;2023-08-21T09:25:06;21.00;99.90
27544;DHT22;17996;51.056;3.656;2023-08-21T09:27:38;21.00;99.90
27544;DHT22;17996;51.056;3.656;2023-08-21T09:30:05;21.00;99.90
27544;DHT22;17996;51.056;3.656;2023-08-21T09:32:31;21.00;99.90
27544;DHT22;17996;51.056;3.656;2023-08-21T09:35:17;21.10;99.90
27544;DHT22;17996;51.056;3.656;2023-08-21T09:37:46;21.10;99.90
27544;DHT22;17996;51.056;3.656;2023-08-21T09:40:12;21.20;99.90
27544;DHT22;17996;51.056;3.656;2023-08-21T09:42:39;21.20;99.90
27544;DHT22;17996;51.056;3.656;2023-08-21T09:45:05;21.30;99.90
27544;DHT22;17996;51.056;3.656;2023-08-21T09:47:32;21.20;99.90
27544;DHT22;17996;51.056;3.656;2023-08-21T09:49:59;21.20;99.90
27544;DHT22;17996;51.056;3.656;2023-08-21T09:52:26;21.30;99.90
27544;DHT22;17996;51.056;3.656;2023-08-21T09:54:56;21.20;99.90
27544;DHT22;17996;51.056;3.656;2023-08-21T09:57:23;21.20;99.90
27544;DHT22;17996;51.056;3.656;2023-08-21T09:59:52;21.30;99.90
27544;DHT22;17996;51.056;3.656;2023-08-21T10:02:18;21.30;99.90
27544;DHT22;17996;51.056;3.656;2023-08-21T10:04:45;21.40;99.90
27544;DHT22;17996;51.056;3.656;2023-08-21T10:07:12;21.40;99.90
27544;DHT22;17996;51.056;3.656;2023-08-21T10:09:40;21.50;99.90
27544;DHT22;17996;51.056;3.656;2023-08-21T10:12:09;21.50;99.90
27544;DHT22;17996;51.056;3.656;2023-08-21T10:14:36;21.60;99.90
27544;DHT22;17996;51.056;3.656;2023-08-21T10:17:02;21.60;99.90
27544;DHT22;17996;51.056;3.656;2023-08-21T10:19:31;21.70;99.90
27544;DHT22;17996;51.056;3.656;2023-08-21T10:21:57;21.80;99.90
27544;DHT22;17996;51.056;3.656;2023-08-21T10:24:28;21.80;99.90
27544;DHT22;17996;51.056;3.656;2023-08-21T10:26:59;21.80;99.90
27544;DHT22;17996;51.056;3.656;2023-08-21T10:29:25;21.80;99.90
27544;DHT22;17996;51.056;3.656;2023-08-21T10:32:04;21.90;99.90
27544;DHT22;17996;51.056;3.656;2023-08-21T10:34:33;22.00;99.90
27544;DHT22;17996;51.056;3.656;2023-08-21T10:39:33;22.00;99.90
27544;DHT22;17996;51.056;3.656;2023-08-21T10:42:11;22.00;99.90
27544;DHT22;17996;51.056;3.656;2023-08-21T10:50:01;22.10;99.90
27544;DHT22;17996;51.056;3.656;2023-08-21T10:52:35;22.20;99.90
27544;DHT22;17996;51.056;3.656;2023-08-21T10:55:02;22.20;99.90
27544;DHT22;17996;51.056;3.656;2023-08-21T10:57:31;22.30;99.90
27544;DHT22;17996;51.056;3.656;2023-08-21T11:02:31;22.30;99.90
27544;DHT22;17996;51.056;3.656;2023-08-21T11:04:59;22.30;99.90
27544;DHT22;17996;51.056;3.656;2023-08-21T11:07:26;22.40;99.90
27544;DHT22;17996;51.056;3.656;2023-08-21T11:09:52;22.40;99.90
27544;DHT22;17996;51.056;3.656;2023-08-21T11:12:23;22.50;99.90
27544;DHT22;17996;51.056;3.656;2023-08-21T11:14:49;22.50;99.90
27544;DHT22;17996;51.056;3.656;2023-08-21T11:17:15;22.40;99.90
27544;DHT22;17996;51.056;3.656;2023-08-21T11:19:42;22.50;99.90
27544;DHT22;17996;51.056;3.656;2023-08-21T11:22:08;22.60;99.90
27544;DHT22;17996;51.056;3.656;2023-08-21T11:27:09;22.80;99.90
27544;DHT22;17996;51.056;3.656;2023-08-21T11:29:43;22.80;99.90
27544;DHT22;17996;51.056;3.656;2023-08-21T11:34:41;22.90;99.90
27544;DHT22;17996;51.056;3.656;2023-08-21T11:37:08;22.90;99.90
27544;DHT22;17996;51.056;3.656;2023-08-21T11:39:48;23.00;99.90
27544;DHT22;17996;51.056;3.656;2023-08-21T11:42:15;23.10;99.90
27544;DHT22;17996;51.056;3.656;2023-08-21T11:47:07;23.20;99.90
27544;DHT22;17996;51.056;3.656;2023-08-21T11:49:36;23.30;99.90
27544;DHT22;17996;51.056;3.656;2023-08-21T11:52:02;23.30;99.90
27544;DHT22;17996;51.056;3.656;2023-08-21T11:54:35;23.40;99.90
27544;DHT22;17996;51.056;3.656;2023-08-21T11:57:09;23.50;99.90
27544;DHT22;17996;51.056;3.656;2023-08-21T11:59:35;23.40;99.90
27544;DHT22;17996;51.056;3.656;2023-08-21T12:02:09;23.40;99.90
27544;DHT22;17996;51.056;3.656;2023-08-21T12:04:35;23.40;99.90
27544;DHT22;17996;51.056;3.656;2023-08-21T12:07:00;23.40;99.90
27544;DHT22;17996;51.056;3.656;2023-08-21T12:09:26;23.50;99.90
27544;DHT22;17996;51.056;3.656;2023-08-21T12:11:52;23.60;99.90
27544;DHT22;17996;51.056;3.656;2023-08-21T12:14:18;23.60;99.90
27544;DHT22;17996;51.056;3.656;2023-08-21T12:16:44;23.70;99.90
27544;DHT22;17996;51.056;3.656;2023-08-21T12:19:09;23.70;99.90
27544;DHT22;17996;51.056;3.656;2023-08-21T12:21:37;23.70;99.90
27544;DHT22;17996;51.056;3.656;2023-08-21T12:24:04;23.80;99.90
27544;DHT22;17996;51.056;3.656;2023-08-21T12:26:31;23.90;99.90
27544;DHT22;17996;51.056;3.656;2023-08-21T12:28:56;23.90;99.90
27544;DHT22;17996;51.056;3.656;2023-08-21T12:31:22;24.00;99.90
27544;DHT22;17996;51.056;3.656;2023-08-21T12:33:47;23.90;99.90
27544;DHT22;17996;51.056;3.656;2023-08-21T12:36:13;23.80;99.90
27544;DHT22;17996;51.056;3.656;2023-08-21T12:38:39;23.70;99.90
27544;DHT22;17996;51.056;3.656;2023-08-21T12:41:04;23.80;99.90
27544;DHT22;17996;51.056;3.656;2023-08-21T12:43:31;24.00;99.90
27544;DHT22;17996;51.056;3.656;2023-08-21T12:45:57;24.00;99.90
27544;DHT22;17996;51.056;3.656;2023-08-21T12:48:22;24.00;99.90
27544;DHT22;17996;51.056;3.656;2023-08-21T12:50:48;23.90;99.90
27544;DHT22;17996;51.056;3.656;2023-08-21T12:53:14;23.70;99.90
27544;DHT22;17996;51.056;3.656;2023-08-21T12:55:40;23.70;99.90
27544;DHT22;17996;51.056;3.656;2023-08-21T12:58:05;23.70;99.90
27544;DHT22;17996;51.056;3.656;2023-08-21T13:00:31;23.80;99.90
27544;DHT22;17996;51.056;3.656;2023-08-21T13:03:00;23.80;99.90
27544;DHT22;17996;51.056;3.656;2023-08-21T13:05:25;23.80;99.90
27544;DHT22;17996;51.056;3.656;2023-08-21T13:07:52;24.00;99.90
27544;DHT22;17996;51.056;3.656;2023-08-21T13:10:18;24.10;99.90
27544;DHT22;17996;51.056;3.656;2023-08-21T13:12:43;24.20;99.90
27544;DHT22;17996;51.056;3.656;2023-08-21T13:15:10;24.40;99.90
27544;DHT22;17996;51.056;3.656;2023-08-21T13:17:35;24.50;99.90
27544;DHT22;17996;51.056;3.656;2023-08-21T13:20:02;24.60;99.90
27544;DHT22;17996;51.056;3.656;2023-08-21T13:22:28;24.70;99.90
27544;DHT22;17996;51.056;3.656;2023-08-21T13:24:53;24.60;99.90
27544;DHT22;17996;51.056;3.656;2023-08-21T13:27:19;24.50;99.90
27544;DHT22;17996;51.056;3.656;2023-08-21T13:29:46;24.60;99.90
27544;DHT22;17996;51.056;3.656;2023-08-21T13:32:12;24.50;99.90
27544;DHT22;17996;51.056;3.656;2023-08-21T13:34:38;24.60;99.90
27544;DHT22;17996;51.056;3.656;2023-08-21T13:37:04;24.60;99.90
27544;DHT22;17996;51.056;3.656;2023-08-21T13:39:29;24.60;99.90
27544;DHT22;17996;51.056;3.656;2023-08-21T13:41:56;24.60;99.90
27544;DHT22;17996;51.056;3.656;2023-08-21T13:44:22;24.50;99.90
27544;DHT22;17996;51.056;3.656;2023-08-21T13:46:47;24.60;99.90
27544;DHT22;17996;51.056;3.656;2023-08-21T13:49:13;24.40;99.90
27544;DHT22;17996;51.056;3.656;2023-08-21T13:51:39;24.40;99.90
27544;DHT22;17996;51.056;3.656;2023-08-21T13:54:05;24.30;99.90
27544;DHT22;17996;51.056;3.656;2023-08-21T13:56:30;24.50;99.90
27544;DHT22;17996;51.056;3.656;2023-08-21T13:58:56;24.50;99.90
27544;DHT22;17996;51.056;3.656;2023-08-21T14:01:21;24.50;99.90
27544;DHT22;17996;51.056;3.656;2023-08-21T14:03:47;24.60;99.90
27544;DHT22;17996;51.056;3.656;2023-08-21T14:06:13;24.70;99.90
27544;DHT22;17996;51.056;3.656;2023-08-21T14:08:38;24.90;99.90
27544;DHT22;17996;51.056;3.656;2023-08-21T14:11:04;25.00;99.90
27544;DHT22;17996;51.056;3.656;2023-08-21T14:13:30;25.20;99.90
27544;DHT22;17996;51.056;3.656;2023-08-21T14:15:55;25.30;99.90
27544;DHT22;17996;51.056;3.656;2023-08-21T14:18:21;25.40;99.90
27544;DHT22;17996;51.056;3.656;2023-08-21T14:20:47;25.70;99.90
27544;DHT22;17996;51.056;3.656;2023-08-21T14:23:13;26.10;99.90
27544;DHT22;17996;51.056;3.656;2023-08-21T14:25:38;26.50;99.90
27544;DHT22;17996;51.056;3.656;2023-08-21T14:28:04;27.00;99.90
27544;DHT22;17996;51.056;3.656;2023-08-21T14:30:30;27.50;99.90
27544;DHT22;17996;51.056;3.656;2023-08-21T14:32:56;28.00;99.90
27544;DHT22;17996;51.056;3.656;2023-08-21T14:35:21;27.90;99.90
27544;DHT22;17996;51.056;3.656;2023-08-21T14:37:48;28.30;99.90
27544;DHT22;17996;51.056;3.656;2023-08-21T14:40:14;28.90;99.90
27544;DHT22;17996;51.056;3.656;2023-08-21T14:42:40;29.20;99.90
27544;DHT22;17996;51.056;3.656;2023-08-21T14:45:06;29.60;99.90
27544;DHT22;17996;51.056;3.656;2023-08-21T14:47:32;29.90;99.90
27544;DHT22;17996;51.056;3.656;2023-08-21T14:49:57;30.20;99.90
27544;DHT22;17996;51.056;3.656;2023-08-21T14:52:23;30.40;99.90
27544;DHT22;17996;51.056;3.656;2023-08-21T14:54:52;30.80;99.90
27544;DHT22;17996;51.056;3.656;2023-08-21T14:57:18;31.20;99.90
27544;DHT22;17996;51.056;3.656;2023-08-21T14:59:44;31.40;99.90
27544;DHT22;17996;51.056;3.656;2023-08-21T15:02:09;31.60;99.90
27544;DHT22;17996;51.056;3.656;2023-08-21T15:04:35;31.90;99.90
27544;DHT22;17996;51.056;3.656;2023-08-21T15:07:02;32.30;99.90
27544;DHT22;17996;51.056;3.656;2023-08-21T15:09:27;32.30;99.30
27544;DHT22;17996;51.056;3.656;2023-08-21T15:11:53;32.10;98.50
27544;DHT22;17996;51.056;3.656;2023-08-21T15:14:19;31.80;97.90
27544;DHT22;17996;51.056;3.656;2023-08-21T15:16:44;31.40;97.90
27544;DHT22;17996;51.056;3.656;2023-08-21T15:19:10;30.90;98.10
27544;DHT22;17996;51.056;3.656;2023-08-21T15:21:36;30.40;97.90
27544;DHT22;17996;51.056;3.656;2023-08-21T15:24:01;30.40;98.50
27544;DHT22;17996;51.056;3.656;2023-08-21T15:26:27;30.60;98.60
27544;DHT22;17996;51.056;3.656;2023-08-21T15:28:53;31.00;98.60
27544;DHT22;17996;51.056;3.656;2023-08-21T15:31:19;31.60;98.60
27544;DHT22;17996;51.056;3.656;2023-08-21T15:33:45;32.10;99.20
27544;DHT22;17996;51.056;3.656;2023-08-21T15:36:13;32.60;98.90
27544;DHT22;17996;51.056;3.656;2023-08-21T15:38:38;33.10;99.50
27544;DHT22;17996;51.056;3.656;2023-08-21T15:41:04;33.50;98.10
27544;DHT22;17996;51.056;3.656;2023-08-21T15:43:30;33.70;97.30
27544;DHT22;17996;51.056;3.656;2023-08-21T15:45:55;33.90;97.20
27544;DHT22;17996;51.056;3.656;2023-08-21T15:48:21;34.10;96.80
27544;DHT22;17996;51.056;3.656;2023-08-21T15:50:46;34.30;95.50